Webcam Meteoipassi more information Webcam Meteoipassi


Pisa torre orologio more information Pisa torre orologio


Visit our other weather sites:

Pomeziameteo 1Sito sul meteo

Pomeziameteo DashboardSito sul meteo

Caput FrigorisSito sul meteo

BarcellonameteoSito sul meteo

MeteoipassiSito sul meteo

ViterbometeoSito sul meteo

MeteotortoretoSito sul meteo

TortoretometeolidoSito sul meteo

MeteoGonzagaSito sul meteo



No particular awareness of the weather is required.    There are no Weather-warnings

Nearby METAR Reports

   
LIRQ - Firenze
Updated: Aug 8 2020 3:50 pm
Clear  
Clear  
   Vento: NNE 20.4 km/h<br />Gust to 20.4 km/h
Vento: NNE 20.4 km/h
Gust to 20.4 km/h
Temperature: 35°C
Dew Point: 13°C
Humidity: 26%
Barometer: 1015 hPa
Visibility: More than 10 km
Cloud details: Clear
LIRQ 081350Z 03011G22KT 360V080 CAVOK 35/13 Q1015
LIRP - Lucca
Updated: Aug 8 2020 3:45 pm
Few Clouds  
Few Clouds  
   Vento: WNW 24.1 km/h
Vento: WNW 24.1 km/h
Temperature: 32°C
Dew Point: 15°C
Humidity: 36%
Barometer: 1016 hPa
Clouds: Few Clouds
Visibility: More than 10 km
Cloud details: Few Clouds 2133.6 m
LIRP 081345Z 30013KT 9999 FEW070 32/15 Q1016 NOSIG
LIRP - Livorno
Updated: Aug 8 2020 3:45 pm
Few Clouds  
Few Clouds  
   Vento: WNW 24.1 km/h
Vento: WNW 24.1 km/h
Temperature: 32°C
Dew Point: 15°C
Humidity: 36%
Barometer: 1016 hPa
Clouds: Few Clouds
Visibility: More than 10 km
Cloud details: Few Clouds 2133.6 m
LIRP 081345Z 30013KT 9999 FEW070 32/15 Q1016 NOSIG
LIMP - Parma
Updated: Aug 8 2020 3:50 pm
Clear  
Clear  
   Vento: East 9.3 km/h
Vento: East 9.3 km/h
Temperature: 34°C
Dew Point: 14°C
Humidity: 30%
Barometer: 1017 hPa
Visibility: More than 10 km
Cloud details: Clear
LIMP 081350Z 08005KT 020V150 CAVOK 34/14 Q1017
LIRF - Roma
Updated: Aug 8 2020 3:50 pm
Clear  
Clear  
   Vento: North 22.2 km/h
Vento: North 22.2 km/h
Temperature: 35°C
Dew Point: 15°C
Humidity: 30%
Barometer: 1012 hPa
Visibility: More than 10 km
Cloud details: Clear
LIRF 081350Z 35012KT 320V030 CAVOK 35/15 Q1012 NOSIG
 

Script developed by  Saratoga-weather.org Adapted for the template by  Weerstation Leuven

You find our weather info also at:

European Weather Network

Weather Underground

AWEKAS

HAMweather, WeatherForYou, PWS Weather

Equipment we use:

Weather-station
Oregon Scientific WMR88

Weather-program
WVIEW

Weather-server
WDS-5

Provider
Anemos WDS-5

Oregon Scientific WMR88

WVIEW

WDS-5

Anemos WDS-5